Portada
METAR-TAF:

METAR-TAF

Aeroports :

Karachi, Pakistan

latitud: 24-54N, longitud: 067-08E, altitud: 21 m

Observació

L'informe es va fer fa 19 minuts, a les 22:00 UTC
Vent 5 kt del Nord-Oest
Temperatura 24°C
Humitat 61%
Pressió 1011 hPa
Visibilitat: 7000 m

METAR: OPKC 022200Z 32005KT 7000 NSC 24/16 Q1011 NOSIG

Hora: 03:19 (22:19 UTC)

Pronòstic

L'informe es va fer fa 6 hores i 19 minuts, a les 16:00 UTC
Pronòstic vàlid del 02 a les 18 UTC al 03 a les 24 UTC
Vent 8 kt del Oest/Nord-Oest
Visibilitat: 6000 m
Temporalment
l' 03 a les 00 UTC al 03 a les 04 UTC
Vent 5 kt del Nord-Oest
Visibilitat: 5000 m
calitja
A partir de les 03 a les 0600 UTC
Vent 8 kt del Oest/Sud-Oest amb ràfegues de 18 kt
Visibilitat: 6000 m
A partir de les 03 a les 1800 UTC
Vent 8 kt del Oest/Nord-Oest
Visibilitat: 6000 m

TAF: OPKC 021600Z 0218/0324 29008KT 6000 NSC TEMPO 0300/0304 31005KT 5000 HZ NSC FM030600 24008G18KT 6000 NSC FM031800 29008KT 6000 NSC

Observacions i pronòstics meteorològics de més de 4000 aeroports (METAR i TAF).

Les estacions disponibles són els punts grocs i vermells al mapa.

Posi el ratolí al punt desitjat per veure el nom de l'estació.

Feu clic per veure les observacions i els pronòstics meteorològics.

Per canviar el mapa: feu clic els botons verds amb una creu de color negre per apropar; al botó verd amb un guió per allunyar la imatge; o en les fletxes verdes per a mapes adjacents.


METAR-TAF: